Airfield :
LOGIN :

Register | Disclaimer

   EN    FR    IT 

 










Legend :    VFR   Marginal VFR   IFR   Intensive IFR   Very Intensive IFR
Visi :
Ceiling :
>= 8 km
>= 3000ft
5 to 8 km
1000 to 3000 ft
1500m to 5 km
500 to 1000 ft
800 to 1500m
200 to 500 ft
< 800m
< 200 ft
Symbols :   Thunderstorms  Fog  Heavy snow  Heavy precipitations  Wind > 20 kt
SIGMETs :     Misc.  Thunderstorms  Icing  Turbulence  Mountain Waves  Volcanic Ashes






- Airport Elevation : 13 ft
- IATA code : CEQ


LFMD - Cannes Mandelieu

CURRENT METAR :
  • 052300Z AUTO 09009G20KT 020V150 9999 FEW070 BKN082 OVC100 12/02 Q1027

EXPIRED METARs :
  • 052230Z AUTO 09007KT 010V180 9999 BKN060 BKN074 OVC092 11/03 Q1027
  • 052130Z AUTO 11008KT 020V180 9000 -RA BKN034 BKN041 OVC060 11/05 Q1027 TEMPO 09020G30KT
  • 052100Z AUTO VRB07KT 9000 FEW033 OVC047 11/05 Q1027 TEMPO 09020G30KT
  • 052030Z AUTO 10009KT 060V140 9999 BKN034 OVC041 12/05 Q1027 TEMPO 09020G30KT

TAF TAF LFMD
Valid from the 05 at 15:00 until the 06 at 15:00 UTC


051400Z 0515/0615 13008KT 9999 BKN025
TEMPO 0522/0612 09020G30KT
ATIS : +33 4 92 19 94 92



MET'MAP, your aeronautical weather chart ! - Copyright ORBIFLY December 2007 - Disclaimer

ORBIFLY MET'MAP TEAM :

Programming & Development : Alexandra Zaïnal
Original concept : Baudouin d'Aumeries
Technical & hardware support : Manuel Goepfert
Assistance : Marc-Olivier Méhu




SOURCES & CREDITS :

   NOAA